Accueil
METAR-TAF:

METAR-TAF

Aéroports :

Şırnak, Turquie

latitude: 37-21-50N, longitude: 42-03-36E, altitude: 621 m

Observation

Le bulletin a été fait il y a 39 minutes, à 14:50 UTC
Vent 11 kt de ouest/nord-ouest
Température 13°C
Humidité 58%
Pression 1007 hPa
Visibilité 10 km ou plus
Quelques nuages à une hauteur de 3500 ft

METAR: LTCV 251450Z 30011KT 9999 FEW035 13/05 Q1007

Heure: 18:29 (15:29 UTC)

Prévision

Le bulletin a été fait il y a 1 heure et 49 minutes, à 13:40 UTC
Prévision valable du 25 à 15 UTC au 25 à 24 UTC
Vent 8 kt de nord-ouest
Visibilité 10 km ou plus
Nuages épars à une hauteur de 4000 ft
Evoluant progressivement
du 25 à 15 UTC au 25 à 18 UTC
Visibilité 10 km ou plus
pas de nuages en-dessous de 1500 mètres et pas de cumulonimbus.

TAF: LTCV 251340Z 2515/2524 31008KT 9999 SCT040 BECMG 2515/2518 CAVOK

Observations et prévisions météorologiques de plus de 4000 aéroports (messages METAR et TAF).

Les stations disponibles sont représentées par des disques jaunes et rouges sur la carte.

Passer la souris dessus pour voir le nom de la station.

Cliquer dessus pour voir les observations et prévisions météorologiques.

Pour changer de carte: cliquez sur les boutons verts avec une croix noire pour zoomer, sur le bouton vert avec un tiret pour effectuer un zoom arrière, ou sur les flèches vertes pour les cartes adjacentes.


METAR-TAF: